Time;durP1;ratioP1;P1;durP2;ratioP2;P2;SDS_P1;SDS_P2;PMS_P1;PMS_P2;Temp;Humidity;BMP_temperature;BMP_pressure;BME280_temperature;BME280_humidity;BME280_pressure;Samples;Min_cycle;Max_cycle;Signal;HPM_P1;HPM_P2
2023/06/20 00:00:49;;;;;;;22.13;11.90;;;;;;;-142.32;100.00;62735.25;5026261;28;20244;-77
2023/06/20 00:03:15;;;;;;;19.00;11.47;;;;;;;-142.32;100.00;62735.25;5025136;28;20243;-76
2023/06/20 00:05:41;;;;;;;18.63;11.37;;;;;;;-142.32;100.00;62735.25;5024088;28;20228;-76
2023/06/20 00:08:06;;;;;;;19.03;11.30;;;;;;;-142.32;100.00;62735.25;5022734;28;20244;-76
2023/06/20 00:10:32;;;;;;;21.47;11.50;;;;;;;-142.32;100.00;62735.25;5021937;28;20290;-76
2023/06/20 00:12:59;;;;;;;18.53;11.73;;;;;;;-142.32;100.00;62735.25;5035994;28;20619;-76
2023/06/20 00:15:25;;;;;;;17.43;10.83;;;;;;;-142.32;100.00;62735.25;5039731;28;20332;-75
2023/06/20 00:17:52;;;;;;;18.03;10.40;;;;;;;-142.32;100.00;62735.25;5027587;28;20247;-77
2023/06/20 00:20:18;;;;;;;16.03;10.13;;;;;;;-142.32;100.00;62735.25;5024012;28;20229;-76
2023/06/20 00:22:44;;;;;;;15.33;10.00;;;;;;;-142.32;100.00;62735.25;5006442;28;20303;-75
2023/06/20 00:25:10;;;;;;;16.60;9.70;;;;;;;-142.32;100.00;62735.25;5039547;28;20225;-77
2023/06/20 00:27:35;;;;;;;16.07;9.60;;;;;;;-142.32;100.00;62735.25;5009482;28;20266;-77
2023/06/20 00:30:01;;;;;;;15.60;10.00;;;;;;;-142.32;100.00;62735.25;5004034;28;20345;-77
2023/06/20 00:32:26;;;;;;;14.40;9.80;;;;;;;-142.32;100.00;62735.25;5019716;28;20240;-75
2023/06/20 00:34:52;;;;;;;15.30;9.97;;;;;;;-142.32;100.00;62735.25;5024859;28;20280;-76
2023/06/20 00:37:18;;;;;;;16.20;9.00;;;;;;;-142.32;100.00;62735.25;5020963;28;20233;-76
2023/06/20 00:39:43;;;;;;;16.90;9.60;;;;;;;-142.32;100.00;62735.25;5018469;28;20959;-76
2023/06/20 00:42:18;;;;;;;17.17;9.50;;;;;;;-142.32;100.00;62735.25;5040351;28;20244;-77
2023/06/20 00:44:44;;;;;;;17.50;9.47;;;;;;;-142.32;100.00;62735.25;5001721;28;20235;-78
2023/06/20 00:47:10;;;;;;;14.30;9.80;;;;;;;-142.32;100.00;62735.25;5038167;28;20792;-78
2023/06/20 00:49:36;;;;;;;13.73;8.93;;;;;;;-142.32;100.00;62735.25;5031583;28;20275;-77
2023/06/20 00:52:02;;;;;;;16.03;9.50;;;;;;;-142.32;100.00;62735.25;5020804;28;20263;-76
2023/06/20 00:54:29;;;;;;;16.87;9.60;;;;;;;-142.32;100.00;62735.25;5000857;28;20316;-77
2023/06/20 00:56:54;;;;;;;15.50;9.57;;;;;;;-142.32;100.00;62735.25;5024882;28;20945;-76
2023/06/20 00:59:20;;;;;;;13.70;9.57;;;;;;;-142.32;100.00;62735.25;5026503;28;20233;-75
2023/06/20 01:01:45;;;;;;;17.83;9.57;;;;;;;-142.32;100.00;62735.25;5023065;28;20232;-76
2023/06/20 01:04:12;;;;;;;14.33;9.47;;;;;;;-142.32;100.00;62735.25;5023305;28;20666;-76
2023/06/20 01:06:48;;;;;;;17.30;9.43;;;;;;;-142.32;100.00;62735.25;5040284;28;20302;-76
2023/06/20 01:09:38;;;;;;;17.17;9.77;;;;;;;-142.32;100.00;62735.25;5015870;28;20244;-77
2023/06/20 01:12:29;;;;;;;21.10;9.83;;;;;;;-142.32;100.00;62735.25;5036906;28;20225;-77
2023/06/20 01:15:15;;;;;;;14.50;9.57;;;;;;;-142.32;100.00;62735.25;5018565;28;20233;-76
2023/06/20 01:17:40;;;;;;;20.43;10.13;;;;;;;-142.32;100.00;62735.25;5025432;28;20330;-77
2023/06/20 01:20:29;;;;;;;16.57;9.63;;;;;;;-142.32;100.00;62735.25;5040965;28;20233;-76
2023/06/20 01:23:20;;;;;;;16.10;10.00;;;;;;;-142.32;100.00;62735.25;5025628;28;20236;-77
2023/06/20 01:26:07;;;;;;;16.33;10.03;;;;;;;-142.32;100.00;62735.25;5018036;28;20293;-75
2023/06/20 01:28:40;;;;;;;14.07;9.80;;;;;;;-142.32;100.00;62735.25;5033570;28;20229;-76
2023/06/20 01:31:27;;;;;;;15.03;10.30;;;;;;;-142.32;100.00;62735.25;5019728;28;20243;-76
2023/06/20 01:33:56;;;;;;;17.07;9.97;;;;;;;-142.32;100.00;62735.25;5001091;28;20236;-77
2023/06/20 01:36:22;;;;;;;14.70;9.63;;;;;;;-142.32;100.00;62735.25;5019527;28;20762;-77
2023/06/20 01:38:50;;;;;;;13.73;9.73;;;;;;;-142.32;100.00;62735.25;5022678;28;20237;-77
2023/06/20 01:41:17;;;;;;;13.80;9.00;;;;;;;-142.32;100.00;62735.25;5017405;28;20780;-76
2023/06/20 01:43:43;;;;;;;16.47;9.53;;;;;;;-142.32;100.00;62735.25;5000663;28;20271;-76
2023/06/20 01:46:09;;;;;;;16.27;9.20;;;;;;;-142.32;100.00;62735.25;5004294;28;20228;-76
2023/06/20 01:48:35;;;;;;;13.87;8.87;;;;;;;-142.32;100.00;62735.25;5027496;28;20282;-76
2023/06/20 01:51:01;;;;;;;14.77;8.83;;;;;;;-142.32;100.00;62735.25;5007850;28;20232;-76
2023/06/20 01:53:26;;;;;;;13.33;9.00;;;;;;;-142.32;100.00;62735.25;5026206;28;20229;-76
2023/06/20 01:55:52;;;;;;;13.90;8.70;;;;;;;-142.32;100.00;62735.25;5020838;28;20237;-76
2023/06/20 01:58:17;;;;;;;14.00;8.33;;;;;;;-142.32;100.00;62735.25;5027441;28;20225;-77
2023/06/20 02:00:43;;;;;;;12.10;8.77;;;;;;;-142.32;100.00;62735.25;5021198;28;20294;-77
2023/06/20 02:03:09;;;;;;;15.07;8.73;;;;;;;-142.32;100.00;62735.25;5020426;28;20233;-76
2023/06/20 02:05:34;;;;;;;12.13;8.70;;;;;;;-142.32;100.00;62735.25;5022500;28;20229;-76
2023/06/20 02:08:00;;;;;;;13.87;8.43;;;;;;;-142.32;100.00;62735.25;5030146;28;20328;-76
2023/06/20 02:10:26;;;;;;;14.13;8.93;;;;;;;-142.32;100.00;62735.25;5039282;28;20237;-77
2023/06/20 02:12:53;;;;;;;12.97;8.33;;;;;;;-142.32;100.00;62735.25;5023474;28;20241;-76
2023/06/20 02:15:19;;;;;;;14.43;8.80;;;;;;;-142.32;100.00;62735.25;5002994;28;20325;-76
2023/06/20 02:17:45;;;;;;;14.90;8.70;;;;;;;-142.32;100.00;62735.25;5012143;28;20240;-75
2023/06/20 02:20:11;;;;;;;14.03;8.70;;;;;;;-142.32;100.00;62735.25;5027764;28;20229;-76
2023/06/20 02:22:36;;;;;;;16.17;9.20;;;;;;;-142.32;100.00;62735.25;5023583;28;20944;-76
2023/06/20 02:25:06;;;;;;;14.97;8.83;;;;;;;-142.32;100.00;62735.25;4988944;28;20723;-78
2023/06/20 02:27:32;;;;;;;19.63;9.60;;;;;;;-142.32;100.00;62735.25;4988645;28;20320;-75
2023/06/20 02:29:58;;;;;;;16.37;9.27;;;;;;;-142.32;100.00;62735.25;5024719;28;20731;-75
2023/06/20 02:32:23;;;;;;;14.27;9.23;;;;;;;-142.32;100.00;62735.25;5032177;28;20239;-75
2023/06/20 02:34:49;;;;;;;16.00;9.60;;;;;;;-142.32;100.00;62735.25;5031558;28;20702;-76
2023/06/20 02:37:14;;;;;;;18.43;8.87;;;;;;;-142.32;100.00;62735.25;5009815;28;20594;-75
2023/06/20 02:39:43;;;;;;;15.83;9.23;;;;;;;-142.32;100.00;62735.25;5027845;28;20240;-76
2023/06/20 02:42:08;;;;;;;16.13;9.43;;;;;;;-142.32;100.00;62735.25;4998550;28;20231;-76
2023/06/20 02:44:34;;;;;;;18.17;10.10;;;;;;;-142.32;100.00;62735.25;4972111;28;20234;-77
2023/06/20 02:47:22;;;;;;;14.70;9.60;;;;;;;-142.32;100.00;62735.25;4979327;28;20257;-76
2023/06/20 02:50:17;;;;;;;16.13;9.27;;;;;;;-142.32;100.00;62735.25;4979386;28;20271;-76
2023/06/20 02:52:48;;;;;;;15.10;9.90;;;;;;;-142.32;100.00;62735.25;4972604;28;20314;-76
2023/06/20 02:56:05;;;;;;;15.87;9.77;;;;;;;-142.32;100.00;62735.25;4975125;28;20235;-77
2023/06/20 02:58:31;;;;;;;16.63;8.93;;;;;;;-142.32;100.00;62735.25;4938578;28;20239;-77
2023/06/20 03:00:57;;;;;;;18.30;8.93;;;;;;;-142.32;100.00;62735.25;4977039;28;20735;-76
2023/06/20 03:03:35;;;;;;;14.43;8.97;;;;;;;-142.32;100.00;62735.25;4963782;28;20237;-76
2023/06/20 03:06:00;;;;;;;14.20;9.60;;;;;;;-142.32;100.00;62735.25;4979527;28;20246;-75
2023/06/20 03:08:27;;;;;;;17.03;8.70;;;;;;;-142.32;100.00;62735.25;4965029;28;20270;-76
2023/06/20 03:10:53;;;;;;;15.07;8.93;;;;;;;-142.32;100.00;62735.25;4970950;28;20239;-76
2023/06/20 03:13:20;;;;;;;15.47;8.90;;;;;;;-142.32;100.00;62735.25;4990337;28;20233;-77
2023/06/20 03:15:45;;;;;;;13.57;8.97;;;;;;;-142.32;100.00;62735.25;5010838;28;20235;-77
2023/06/20 03:18:12;;;;;;;18.63;8.63;;;;;;;-142.32;100.00;62735.25;5006279;28;20229;-77
2023/06/20 03:20:37;;;;;;;14.70;9.23;;;;;;;-142.32;100.00;62735.25;5026003;28;20260;-76
2023/06/20 03:23:03;;;;;;;13.33;9.00;;;;;;;-142.32;100.00;62735.25;5023280;28;20622;-77
2023/06/20 03:25:28;;;;;;;13.43;8.70;;;;;;;-142.32;100.00;62735.25;5029774;28;20239;-75
2023/06/20 03:27:54;;;;;;;14.90;8.80;;;;;;;-142.32;100.00;62735.25;5014991;28;20241;-76
2023/06/20 03:30:20;;;;;;;16.33;8.60;;;;;;;-142.32;100.00;62735.25;5029373;28;20226;-75
2023/06/20 03:32:45;;;;;;;15.80;8.60;;;;;;;-142.32;100.00;62735.25;5018974;28;20237;-76
2023/06/20 03:35:11;;;;;;;14.80;8.80;;;;;;;-142.32;100.00;62735.25;5025463;28;20224;-76
2023/06/20 03:37:36;;;;;;;16.30;8.90;;;;;;;-142.32;100.00;62735.25;5024643;28;20241;-77
2023/06/20 03:40:03;;;;;;;16.53;8.83;;;;;;;-142.32;100.00;62735.25;5004958;28;20263;-77
2023/06/20 03:42:28;;;;;;;14.80;9.20;;;;;;;-142.32;100.00;62735.25;5014992;28;20261;-76
2023/06/20 03:44:54;;;;;;;15.97;9.20;;;;;;;-142.32;100.00;62735.25;5018343;28;20275;-76
2023/06/20 03:47:19;;;;;;;14.40;8.93;;;;;;;-142.32;100.00;62735.25;5011668;28;20698;-76
2023/06/20 03:49:45;;;;;;;16.20;9.33;;;;;;;-142.32;100.00;62735.25;5043044;28;20324;-77
2023/06/20 03:52:11;;;;;;;14.73;9.00;;;;;;;-142.32;100.00;62735.25;5021819;28;21023;-77
2023/06/20 03:54:39;;;;;;;17.77;9.20;;;;;;;-142.32;100.00;62735.25;5024259;28;20319;-76
2023/06/20 03:57:05;;;;;;;17.17;9.80;;;;;;;-142.32;100.00;62735.25;5038369;28;20237;-76
2023/06/20 03:59:31;;;;;;;15.60;9.30;;;;;;;-142.32;100.00;62735.25;5030244;28;20279;-76
2023/06/20 04:01:56;;;;;;;14.30;8.90;;;;;;;-142.32;100.00;62735.25;5006513;28;20682;-77
2023/06/20 04:04:22;;;;;;;15.03;9.17;;;;;;;-142.32;100.00;62735.25;5028069;28;20239;-76
2023/06/20 04:06:49;;;;;;;14.87;8.90;;;;;;;-142.32;100.00;62735.25;5044488;28;21043;-77
2023/06/20 04:09:16;;;;;;;16.07;9.30;;;;;;;-142.32;100.00;62735.25;4993780;28;20709;-76
2023/06/20 04:11:43;;;;;;;20.83;9.87;;;;;;;-142.32;100.00;62735.25;5024711;28;20225;-76
2023/06/20 04:14:09;;;;;;;18.40;9.20;;;;;;;-142.32;100.00;62735.25;5022530;28;20324;-76
2023/06/20 04:16:37;;;;;;;17.93;9.80;;;;;;;-142.32;100.00;62735.25;5017242;28;20296;-77
2023/06/20 04:19:02;;;;;;;15.37;9.47;;;;;;;-142.32;100.00;62735.25;5012054;28;20233;-76
2023/06/20 04:21:31;;;;;;;15.60;10.13;;;;;;;-142.32;100.00;62735.25;5004056;28;20244;-76
2023/06/20 04:23:57;;;;;;;18.23;10.90;;;;;;;-142.32;100.00;62735.25;5025579;28;20272;-76
2023/06/20 04:26:22;;;;;;;18.13;10.17;;;;;;;-142.32;100.00;62735.25;5024894;28;20233;-76
2023/06/20 04:28:48;;;;;;;19.33;10.60;;;;;;;-142.32;100.00;62735.25;5011018;28;20237;-76
2023/06/20 04:31:14;;;;;;;21.37;10.53;;;;;;;-142.32;100.00;62735.25;5035291;28;20726;-76
2023/06/20 04:33:43;;;;;;;17.27;10.57;;;;;;;-142.32;100.00;62735.25;5036101;28;20888;-75
2023/06/20 04:36:23;;;;;;;17.90;10.93;;;;;;;;;;5107797;27;20612;-75
2023/06/20 04:38:49;;;;;;;20.27;11.00;;;;;;;;;;5073039;28;20231;-76
2023/06/20 04:41:14;;;;;;;18.80;10.53;;;;;;;;;;5071903;28;20235;-75
2023/06/20 04:43:44;;;;;;;17.77;10.60;;;;;;;;;;5050761;28;20221;-76
2023/06/20 04:46:12;;;;;;;17.43;10.80;;;;;;;;;;5069591;28;20228;-76
2023/06/20 04:48:38;;;;;;;19.30;10.53;;;;;;;;;;5044207;28;20213;-75
2023/06/20 04:51:07;;;;;;;16.83;10.33;;;;;;;;;;5050634;28;20222;-76
2023/06/20 04:53:33;;;;;;;20.07;10.43;;;;;;;;;;5049826;28;20222;-77
2023/06/20 04:55:59;;;;;;;19.13;11.23;;;;;;;;;;5056197;28;20718;-75
2023/06/20 04:58:28;;;;;;;20.67;11.17;;;;;;;;;;5051724;28;20221;-75
2023/06/20 05:00:57;;;;;;;19.57;11.40;;;;;;;;;;5072997;28;20274;-76
2023/06/20 05:03:22;;;;;;;25.63;13.10;;;;;;;;;;5060274;28;20224;-75
2023/06/20 05:05:47;;;;;;;23.63;12.83;;;;;;;;;;5050354;28;20323;-76
2023/06/20 05:08:13;;;;;;;24.40;12.27;;;;;;;;;;5069068;28;20221;-76
2023/06/20 05:10:38;;;;;;;21.80;11.67;;;;;;;;;;5052253;28;20262;-76
2023/06/20 05:13:03;;;;;;;21.37;10.87;;;;;;;;;;5066243;28;20216;-76
2023/06/20 05:15:28;;;;;;;19.50;11.27;;;;;;;;;;5058384;28;20232;-75
2023/06/20 05:17:54;;;;;;;18.40;10.83;;;;;;;;;;5052158;28;20287;-76
2023/06/20 05:20:19;;;;;;;17.63;11.30;;;;;;;;;;5055247;28;20349;-76
2023/06/20 05:22:48;;;;;;;18.73;12.13;;;;;;;;;;5068451;28;20251;-76
2023/06/20 05:25:14;;;;;;;23.27;12.03;;;;;;;;;;5067945;28;20789;-76
2023/06/20 05:27:39;;;;;;;20.40;11.73;;;;;;;;;;5051030;28;20224;-76
2023/06/20 05:30:05;;;;;;;20.80;11.83;;;;;;;;;;5050359;28;20233;-76
2023/06/20 05:32:30;;;;;;;22.77;12.33;;;;;;;;;;5049122;28;20370;-76
2023/06/20 05:34:56;;;;;;;24.77;12.07;;;;;;;;;;5051626;28;20239;-76
2023/06/20 05:37:21;;;;;;;22.67;12.07;;;;;;;;;;5056022;28;20744;-75
2023/06/20 05:39:46;;;;;;;22.80;12.30;;;;;;;;;;5052807;28;20220;-77
2023/06/20 05:42:12;;;;;;;19.80;11.63;;;;;;;;;;5067098;28;20232;-76
2023/06/20 05:44:37;;;;;;;21.50;12.10;;;;;;;;;;5049046;28;20232;-77
2023/06/20 05:47:03;;;;;;;20.70;12.27;;;;;;;;;;5044878;28;20227;-76
2023/06/20 05:49:29;;;;;;;20.37;12.03;;;;;;;;;;5057181;28;20224;-77
2023/06/20 05:51:54;;;;;;;21.63;11.93;;;;;;;;;;5043322;28;20764;-76
2023/06/20 05:54:22;;;;;;;19.97;12.20;;;;;;;;;;5035587;28;20394;-76
2023/06/20 05:56:48;;;;;;;21.40;12.30;;;;;;;;;;5064122;28;20248;-74
2023/06/20 05:59:14;;;;;;;19.77;12.33;;;;;;;;;;5050531;28;20307;-76
2023/06/20 06:01:40;;;;;;;25.80;13.70;;;;;;;;;;5053656;28;20219;-76
2023/06/20 06:04:05;;;;;;;29.27;15.07;;;;;;;;;;5039894;28;20316;-76
2023/06/20 06:06:31;;;;;;;25.50;14.93;;;;;;;;;;5058038;28;20670;-75
2023/06/20 06:08:56;;;;;;;30.73;15.00;;;;;;;;;;5038661;28;20743;-76
2023/06/20 06:11:22;;;;;;;22.77;13.93;;;;;;;;;;5052940;28;20938;-76
2023/06/20 06:13:47;;;;;;;28.80;13.93;;;;;;;;;;5040530;28;20811;-75
2023/06/20 06:16:15;;;;;;;22.37;12.90;;;;;;;;;;5056546;28;20236;-76
2023/06/20 06:18:40;;;;;;;22.57;13.07;;;;;;;;;;5054703;28;20359;-76
2023/06/20 06:21:07;;;;;;;25.53;13.07;;;;;;;;;;5055304;28;20311;-78
2023/06/20 06:23:32;;;;;;;24.13;13.10;;;;;;;;;;5064930;28;20244;-76
2023/06/20 06:25:57;;;;;;;24.60;12.43;;;;;;;;;;5054339;28;20274;-77
2023/06/20 06:28:24;;;;;;;22.00;12.57;;;;;;;;;;5035460;28;20247;-77
2023/06/20 06:30:49;;;;;;;28.10;12.77;;;;;;;;;;5036714;28;20767;-76
2023/06/20 06:33:15;;;;;;;22.13;13.07;;;;;;;;;;5055805;28;20255;-77
2023/06/20 06:35:40;;;;;;;24.27;13.03;;;;;;;;;;5037161;28;20316;-76
2023/06/20 06:38:05;;;;;;;19.33;12.47;;;;;;;;;;5039565;28;20233;-75
2023/06/20 06:40:31;;;;;;;22.13;13.30;;;;;;;;;;5048319;28;20575;-78
2023/06/20 06:42:56;;;;;;;26.50;12.50;;;;;;;;;;5037569;28;20217;-77
2023/06/20 06:45:22;;;;;;;21.23;12.43;;;;;;;;;;5055136;28;20255;-75
2023/06/20 06:47:47;;;;;;;27.30;13.07;;;;;;;;;;5057999;28;20221;-76
2023/06/20 06:50:13;;;;;;;22.43;12.40;;;;;;;;;;5037269;28;20285;-77
2023/06/20 06:52:38;;;;;;;22.90;11.77;;;;;;;;;;5041218;28;20674;-77
2023/06/20 06:55:03;;;;;;;25.10;12.87;;;;;;;;;;5058104;28;20241;-75
2023/06/20 06:57:29;;;;;;;20.87;12.27;;;;;;;;;;5044211;28;20671;-77
2023/06/20 06:59:54;;;;;;;19.80;12.77;;;;;;;;;;5055428;28;20394;-79
2023/06/20 07:02:20;;;;;;;22.30;12.57;;;;;;;;;;5059735;28;20221;-79
2023/06/20 07:04:46;;;;;;;23.80;12.07;;;;;;;;;;5037200;28;20253;-78
2023/06/20 07:07:11;;;;;;;22.27;12.63;;;;;;;;;;5043374;28;20247;-78
2023/06/20 07:09:37;;;;;;;23.10;13.00;;;;;;;;;;5039700;28;20247;-80
2023/06/20 07:12:03;;;;;;;22.40;12.53;;;;;;;;;;5043060;28;20214;-79
2023/06/20 07:14:28;;;;;;;24.15;12.13;;;;;;;;;;5050275;28;20233;-76
2023/06/20 07:16:54;;;;;;;20.13;11.70;;;;;;;;;;5054370;28;20275;-76
2023/06/20 07:19:19;;;;;;;18.52;10.48;;;;;;;;;;5051245;28;20229;-77
2023/06/20 07:21:44;;;;;;;22.03;11.17;;;;;;;;;;5054242;28;20225;-79
2023/06/20 07:24:10;;;;;;;17.58;11.10;;;;;;;;;;5051681;28;20224;-75
2023/06/20 07:26:35;;;;;;;17.10;10.77;;;;;;;;;;5054331;28;20291;-77
2023/06/20 07:29:00;;;;;;;16.55;10.13;;;;;;;;;;5036376;28;20283;-78
2023/06/20 07:31:25;;;;;;;16.57;10.03;;;;;;;;;;5039408;28;20315;-77
2023/06/20 07:33:51;;;;;;;17.92;9.82;;;;;;;;;;5053720;28;20225;-78
2023/06/20 07:36:16;;;;;;;16.20;9.18;;;;;;;;;;5054640;28;20297;-79
2023/06/20 07:38:41;;;;;;;16.40;8.98;;;;;;;;;;5062887;28;20221;-79
2023/06/20 07:41:07;;;;;;;17.67;9.00;;;;;;;;;;5058195;28;20222;-80
2023/06/20 07:43:32;;;;;;;14.23;8.38;;;;;;;;;;5040384;28;20222;-78
2023/06/20 07:45:58;;;;;;;14.88;9.23;;;;;;;;;;5048474;28;20209;-78
2023/06/20 07:48:24;;;;;;;14.35;8.73;;;;;;;;;;5047213;28;20217;-78
2023/06/20 07:50:49;;;;;;;16.85;9.60;;;;;;;;;;5052855;28;20236;-78
2023/06/20 07:53:14;;;;;;;14.48;9.07;;;;;;;;;;5054041;28;20259;-81
2023/06/20 07:55:40;;;;;;;15.43;9.07;;;;;;;;;;5052554;28;20236;-81
2023/06/20 07:58:05;;;;;;;16.73;9.40;;;;;;;;;;5043204;28;20224;-78
2023/06/20 08:00:30;;;;;;;16.20;8.95;;;;;;;;;;5050585;28;20228;-79
2023/06/20 08:02:56;;;;;;;13.52;8.82;;;;;;;;;;5041796;28;20588;-79
2023/06/20 08:05:21;;;;;;;14.30;8.35;;;;;;;;;;5063159;28;20213;-79
2023/06/20 08:07:46;;;;;;;13.10;7.82;;;;;;;;;;5057804;28;20248;-78
2023/06/20 08:10:12;;;;;;;13.38;8.13;;;;;;;;;;5037060;28;20282;-79
2023/06/20 08:12:37;;;;;;;12.30;8.20;;;;;;;;;;5058292;28;20236;-80
2023/06/20 08:15:02;;;;;;;13.27;8.35;;;;;;;;;;5021882;28;20228;-78
2023/06/20 08:17:28;;;;;;;13.45;8.50;;;;;;;;;;5053005;28;20313;-80
2023/06/20 08:19:53;;;;;;;13.05;9.38;;;;;;;;;;5058566;28;20588;-78
2023/06/20 08:22:18;;;;;;;16.17;9.00;;;;;;;;;;5043405;28;20229;-76
2023/06/20 08:24:44;;;;;;;17.67;8.63;;;;;;;;;;5050324;28;20231;-82
2023/06/20 08:27:09;;;;;;;13.05;8.18;;;;;;;;;;5040597;28;20291;-77
2023/06/20 08:29:34;;;;;;;14.30;8.00;;;;;;;;;;5054362;28;20225;-79
2023/06/20 08:32:00;;;;;;;11.02;8.07;;;;;;;;;;5045011;28;20220;-80
2023/06/20 08:34:25;;;;;;;14.45;8.20;;;;;;;;;;5050693;28;20234;-79
2023/06/20 08:36:50;;;;;;;13.70;8.52;;;;;;;;;;5040564;28;20231;-78
2023/06/20 08:39:18;;;;;;;16.13;8.23;;;;;;;;;;5039009;28;20262;-77
2023/06/20 08:41:43;;;;;;;10.82;7.93;;;;;;;;;;5054003;28;20218;-77
2023/06/20 08:44:09;;;;;;;11.32;7.93;;;;;;;;;;5038554;28;20224;-77
2023/06/20 08:46:34;;;;;;;12.13;8.00;;;;;;;;;;5048880;28;20224;-78
2023/06/20 08:49:00;;;;;;;14.77;7.70;;;;;;;;;;5054661;28;20222;-79
2023/06/20 08:51:26;;;;;;;13.25;7.63;;;;;;;;;;5038897;28;20280;-77
2023/06/20 08:53:52;;;;;;;11.40;8.00;;;;;;;;;;5041264;28;20217;-76
2023/06/20 08:56:18;;;;;;;9.75;7.05;;;;;;;;;;5042895;28;20233;-79
2023/06/20 08:58:43;;;;;;;9.48;7.03;;;;;;;;;;5046307;28;20229;-79
2023/06/20 09:01:09;;;;;;;9.38;7.53;;;;;;;;;;5034239;28;20301;-77
2023/06/20 09:03:37;;;;;;;9.43;7.50;;;;;;;;;;5047579;28;20205;-76
2023/06/20 09:06:03;;;;;;;10.70;7.50;;;;;;;;;;5041207;28;20681;-79
2023/06/20 09:08:36;;;;;;;11.18;7.63;;;;;;;;;;5047903;28;20769;-79
2023/06/20 09:11:07;;;;;;;11.90;8.05;;;;;;;;;;5039123;28;20233;-80
2023/06/20 09:13:33;;;;;;;10.18;7.38;;;;;;;;;;5058199;28;20225;-79
2023/06/20 09:16:07;;;;;;;13.68;7.97;;;;;;;;;;5039218;28;20312;-77
2023/06/20 09:18:34;;;;;;;12.60;7.70;;;;;;;;;;5045684;28;20320;-77
2023/06/20 09:21:00;;;;;;;12.98;7.72;;;;;;;;;;5056439;28;20209;-76
2023/06/20 09:23:34;;;;;;;12.02;7.40;;;;;;;;;;5061798;28;20278;-77
2023/06/20 09:26:12;;;;;;;10.60;7.78;;;;;;;;;;5057403;28;20247;-77
2023/06/20 09:28:37;;;;;;;11.50;8.25;;;;;;;;;;5059248;28;20447;-79
2023/06/20 09:31:02;;;;;;;10.68;8.10;;;;;;;;;;5058363;28;20706;-79
2023/06/20 09:33:28;;;;;;;13.27;8.15;;;;;;;;;;5057941;28;20217;-77
2023/06/20 09:35:53;;;;;;;12.43;7.93;;;;;;;;;;5047762;28;20256;-78
2023/06/20 09:38:18;;;;;;;10.38;8.20;;;;;;;;;;5057417;28;20225;-77
2023/06/20 09:40:44;;;;;;;12.98;8.85;;;;;;;;;;5051646;28;20228;-79
2023/06/20 09:43:09;;;;;;;11.60;7.70;;;;;;;;;;5054849;28;20225;-80
2023/06/20 09:45:35;;;;;;;9.85;7.50;;;;;;;;;;5050122;28;20225;-78
2023/06/20 09:48:00;;;;;;;11.55;7.65;;;;;;;;;;5060116;28;20605;-80
2023/06/20 09:50:25;;;;;;;11.73;7.70;;;;;;;;;;5056661;28;20225;-77
2023/06/20 09:52:51;;;;;;;9.80;7.55;;;;;;;;;;5065481;28;20235;-79
2023/06/20 09:55:16;;;;;;;11.27;7.78;;;;;;;;;;5061401;28;20244;-78
2023/06/20 09:57:42;;;;;;;12.00;7.80;;;;;;;;;;5057511;28;20250;-76
2023/06/20 10:00:17;;;;;;;11.63;7.55;;;;;;;;;;5055112;28;20213;-79
2023/06/20 10:02:44;;;;;;;11.43;8.32;;;;;;;;;;5049992;28;20228;-81
2023/06/20 10:05:09;;;;;;;12.38;8.05;;;;;;;;;;5054875;28;20370;-77
2023/06/20 10:07:36;;;;;;;9.48;7.63;;;;;;;;;;5057163;28;20303;-77
2023/06/20 10:10:01;;;;;;;10.18;7.68;;;;;;;;;;5056830;28;20217;-79
2023/06/20 10:12:29;;;;;;;11.20;8.02;;;;;;;;;;5036447;28;20225;-81
2023/06/20 10:14:54;;;;;;;11.82;7.55;;;;;;;;;;5055862;28;20250;-80
2023/06/20 10:17:34;;;;;;;10.18;7.55;;;;;;;;;;5060034;28;20233;-78
2023/06/20 10:20:00;;;;;;;11.48;8.23;;;;;;;;;;5044407;28;20230;-83
2023/06/20 10:22:38;;;;;;;11.30;8.02;;;;;;;;;;5055805;28;20218;-78
2023/06/20 10:25:11;;;;;;;12.93;8.07;;;;;;;;;;5056411;28;20225;-79
2023/06/20 10:27:37;;;;;;;10.63;7.47;;;;;;;;;;5054061;28;20308;-79
2023/06/20 10:30:03;;;;;;;10.60;8.02;;;;;;;;;;5049011;28;20220;-76
2023/06/20 10:32:29;;;;;;;13.23;7.80;;;;;;;;;;5055507;28;20252;-79
2023/06/20 10:34:54;;;;;;;11.23;7.80;;;;;;;;;;5055661;28;20241;-79
2023/06/20 10:37:20;;;;;;;11.60;7.85;;;;;;;;;;5040378;28;20262;-80
2023/06/20 10:39:54;;;;;;;12.10;7.40;;;;;;;;;;5053432;28;20444;-77
2023/06/20 10:42:37;;;;;;;12.77;7.65;;;;;;;;;;5053600;28;20220;-76
2023/06/20 10:45:18;;;;;;;13.15;8.05;;;;;;;;;;5039882;28;20683;-78
2023/06/20 10:47:43;;;;;;;12.57;7.93;;;;;;;;;;5045396;28;20237;-75
2023/06/20 10:50:10;;;;;;;10.68;8.05;;;;;;;;;;5055825;28;20220;-77
2023/06/20 10:52:35;;;;;;;10.57;8.00;;;;;;;;;;5057672;28;20647;-78
2023/06/20 10:55:01;;;;;;;12.25;8.05;;;;;;;;;;5055295;28;20252;-78
2023/06/20 10:57:28;;;;;;;12.98;8.05;;;;;;;;;;5041882;28;20213;-80
2023/06/20 10:59:53;;;;;;;10.75;8.13;;;;;;;;;;5052420;28;20221;-80
2023/06/20 11:02:18;;;;;;;11.23;7.82;;;;;;;;;;5064094;28;20237;-81
2023/06/20 11:04:43;;;;;;;13.13;8.20;;;;;;;;;;5055718;28;20213;-80
2023/06/20 11:07:09;;;;;;;12.27;7.88;;;;;;;;;;5059155;28;20777;-80
2023/06/20 11:09:37;;;;;;;13.27;8.38;;;;;;;;;;5041029;28;20247;-78
2023/06/20 11:12:07;;;;;;;12.07;8.20;;;;;;;;;;5037720;28;20722;-78
2023/06/20 11:14:33;;;;;;;12.43;8.23;;;;;;;;;;5039780;28;20314;-76
2023/06/20 11:16:58;;;;;;;11.13;8.25;;;;;;;;;;5053929;28;20236;-74
2023/06/20 11:19:26;;;;;;;12.80;8.20;;;;;;;;;;5043673;28;20231;-76
2023/06/20 11:21:51;;;;;;;13.07;8.35;;;;;;;;;;5052458;28;20703;-76
2023/06/20 11:24:19;;;;;;;10.30;7.88;;;;;;;;;;5058056;28;20237;-78
2023/06/20 11:26:44;;;;;;;12.45;8.13;;;;;;;;;;5057550;28;20789;-81
2023/06/20 11:29:10;;;;;;;11.35;8.32;;;;;;;;;;5052185;28;20229;-80
2023/06/20 11:31:35;;;;;;;12.85;8.07;;;;;;;;;;5069336;28;20228;-77
2023/06/20 11:34:04;;;;;;;13.35;8.68;;;;;;;;;;5055401;28;20225;-79
2023/06/20 11:36:32;;;;;;;13.20;8.73;;;;;;;;;;5048273;28;20292;-78
2023/06/20 11:39:18;;;;;;;11.82;7.90;;;;;;;;;;5055742;28;20221;-77
2023/06/20 11:41:43;;;;;;;10.27;7.75;;;;;;;;;;5052885;28;20216;-78
2023/06/20 11:44:21;;;;;;;11.18;7.63;;;;;;;;;;5038497;28;20217;-78
2023/06/20 11:46:46;;;;;;;11.00;7.50;;;;;;;;;;5049491;28;20228;-78
2023/06/20 11:49:12;;;;;;;10.82;7.35;;;;;;;;;;5056953;28;20225;-76
2023/06/20 11:51:38;;;;;;;10.80;8.50;;;;;;;;;;5035011;28;20620;-80
2023/06/20 11:54:12;;;;;;;12.10;7.45;;;;;;;;;;5053385;28;20249;-78
2023/06/20 11:56:40;;;;;;;9.00;7.22;;;;;;;;;;5046499;28;20317;-78
2023/06/20 11:59:08;;;;;;;10.05;7.38;;;;;;;;;;5036552;28;20232;-78
2023/06/20 12:01:34;;;;;;;13.07;7.97;;;;;;;;;;5053929;28;20695;-77
2023/06/20 12:04:06;;;;;;;10.40;7.32;;;;;;;;;;5046344;28;20221;-79
2023/06/20 12:06:35;;;;;;;10.65;7.32;;;;;;;;;;5059932;28;20580;-77
2023/06/20 12:09:04;;;;;;;10.25;7.53;;;;;;;;;;5057246;28;20229;-83
2023/06/20 12:11:29;;;;;;;11.05;7.50;;;;;;;;;;5057310;28;20235;-80
2023/06/20 12:13:55;;;;;;;10.25;7.63;;;;;;;;;;5056209;28;21035;-81
2023/06/20 12:16:21;;;;;;;12.32;8.02;;;;;;;;;;5052212;28;20221;-79
2023/06/20 12:18:51;;;;;;;11.60;7.82;;;;;;;;;;5044597;28;20225;-77
2023/06/20 12:21:16;;;;;;;9.80;7.40;;;;;;;;;;5046849;28;20341;-77
2023/06/20 12:23:41;;;;;;;10.73;6.97;;;;;;;;;;5052271;28;20594;-77
2023/06/20 12:26:07;;;;;;;9.95;7.10;;;;;;;;;;5038557;28;20261;-77
2023/06/20 12:28:32;;;;;;;9.55;7.10;;;;;;;;;;5054304;28;20218;-77
2023/06/20 12:30:59;;;;;;;11.00;6.88;;;;;;;;;;5047407;28;20220;-75
2023/06/20 12:33:24;;;;;;;11.23;6.85;;;;;;;;;;5037896;28;20316;-76
2023/06/20 12:35:50;;;;;;;10.05;6.57;;;;;;;;;;5054612;28;20316;-77
2023/06/20 12:38:15;;;;;;;9.80;6.85;;;;;;;;;;5048691;28;20228;-77
2023/06/20 12:40:41;;;;;;;8.05;6.65;;;;;;;;;;5036493;28;20217;-77
2023/06/20 12:43:06;;;;;;;9.98;6.25;;;;;;;;;;5056301;28;20224;-79
2023/06/20 12:45:31;;;;;;;8.55;6.78;;;;;;;;;;5054005;28;20217;-79
2023/06/20 12:47:57;;;;;;;10.60;7.18;;;;;;;;;;5055073;28;20217;-78
2023/06/20 12:50:22;;;;;;;12.25;7.25;;;;;;;;;;5045387;28;20224;-77
2023/06/20 12:52:48;;;;;;;8.57;6.53;;;;;;;;;;5038880;28;20217;-77
2023/06/20 12:55:13;;;;;;;9.80;6.78;;;;;;;;;;5050914;28;20244;-81
2023/06/20 12:57:39;;;;;;;10.32;7.03;;;;;;;;;;5050743;28;20205;-78
2023/06/20 13:00:07;;;;;;;10.85;7.03;;;;;;;;;;5054092;28;20221;-81
2023/06/20 13:02:33;;;;;;;10.45;7.15;;;;;;;;;;5060237;28;20264;-77